sensor_id;sensor_type;location;lat;lon;timestamp;P1;durP1;ratioP1;P2;durP2;ratioP2
12469;SDS011;36499;46.484;13.832;2022-08-19T00:00:39;8.97;;;3.80;;
12469;SDS011;36499;46.484;13.832;2022-08-19T00:03:06;8.20;;;2.70;;
12469;SDS011;36499;46.484;13.832;2022-08-19T00:05:33;9.43;;;3.40;;
12469;SDS011;36499;46.484;13.832;2022-08-19T00:08:01;5.43;;;2.90;;
12469;SDS011;36499;46.484;13.832;2022-08-19T00:10:29;5.90;;;2.67;;
12469;SDS011;36499;46.484;13.832;2022-08-19T00:12:56;11.03;;;2.70;;
12469;SDS011;36499;46.484;13.832;2022-08-19T00:15:23;5.13;;;2.67;;
12469;SDS011;36499;46.484;13.832;2022-08-19T00:17:51;9.27;;;3.00;;
12469;SDS011;36499;46.484;13.832;2022-08-19T00:20:20;4.70;;;2.57;;
12469;SDS011;36499;46.484;13.832;2022-08-19T00:22:49;6.40;;;2.77;;
12469;SDS011;36499;46.484;13.832;2022-08-19T00:25:16;5.67;;;3.00;;
12469;SDS011;36499;46.484;13.832;2022-08-19T00:27:44;8.73;;;3.47;;
12469;SDS011;36499;46.484;13.832;2022-08-19T00:30:11;7.13;;;3.30;;
12469;SDS011;36499;46.484;13.832;2022-08-19T00:32:39;5.43;;;2.50;;
12469;SDS011;36499;46.484;13.832;2022-08-19T00:35:08;7.30;;;2.67;;
12469;SDS011;36499;46.484;13.832;2022-08-19T00:37:36;4.70;;;2.57;;
12469;SDS011;36499;46.484;13.832;2022-08-19T00:40:08;5.23;;;2.70;;
12469;SDS011;36499;46.484;13.832;2022-08-19T00:42:38;7.67;;;2.77;;
12469;SDS011;36499;46.484;13.832;2022-08-19T00:45:08;5.63;;;2.57;;
12469;SDS011;36499;46.484;13.832;2022-08-19T00:47:40;7.70;;;2.90;;
12469;SDS011;36499;46.484;13.832;2022-08-19T00:50:09;6.33;;;2.53;;
12469;SDS011;36499;46.484;13.832;2022-08-19T00:52:41;6.27;;;3.03;;
12469;SDS011;36499;46.484;13.832;2022-08-19T00:55:13;4.33;;;2.50;;
12469;SDS011;36499;46.484;13.832;2022-08-19T00:57:46;4.40;;;2.80;;
12469;SDS011;36499;46.484;13.832;2022-08-19T01:00:20;4.03;;;2.50;;
12469;SDS011;36499;46.484;13.832;2022-08-19T01:02:49;6.10;;;2.63;;
12469;SDS011;36499;46.484;13.832;2022-08-19T01:05:18;6.93;;;2.80;;
12469;SDS011;36499;46.484;13.832;2022-08-19T01:07:52;6.53;;;2.70;;
12469;SDS011;36499;46.484;13.832;2022-08-19T01:10:23;7.70;;;2.50;;
12469;SDS011;36499;46.484;13.832;2022-08-19T01:12:55;6.93;;;2.50;;
12469;SDS011;36499;46.484;13.832;2022-08-19T01:15:25;6.67;;;2.63;;
12469;SDS011;36499;46.484;13.832;2022-08-19T01:17:58;7.27;;;3.00;;
12469;SDS011;36499;46.484;13.832;2022-08-19T01:20:34;10.17;;;3.03;;
12469;SDS011;36499;46.484;13.832;2022-08-19T01:23:03;6.43;;;2.53;;
12469;SDS011;36499;46.484;13.832;2022-08-19T01:25:31;11.00;;;2.47;;
12469;SDS011;36499;46.484;13.832;2022-08-19T01:28:06;5.43;;;2.23;;
12469;SDS011;36499;46.484;13.832;2022-08-19T01:30:34;7.63;;;2.53;;
12469;SDS011;36499;46.484;13.832;2022-08-19T01:33:01;8.90;;;2.93;;
12469;SDS011;36499;46.484;13.832;2022-08-19T01:35:30;7.63;;;2.27;;
12469;SDS011;36499;46.484;13.832;2022-08-19T01:38:00;8.70;;;2.70;;
12469;SDS011;36499;46.484;13.832;2022-08-19T01:40:33;11.73;;;3.03;;
12469;SDS011;36499;46.484;13.832;2022-08-19T01:43:05;7.63;;;2.60;;
12469;SDS011;36499;46.484;13.832;2022-08-19T01:45:33;4.50;;;2.70;;
12469;SDS011;36499;46.484;13.832;2022-08-19T01:48:05;6.97;;;2.63;;
12469;SDS011;36499;46.484;13.832;2022-08-19T01:50:33;6.87;;;2.60;;
12469;SDS011;36499;46.484;13.832;2022-08-19T01:53:06;7.40;;;2.47;;
12469;SDS011;36499;46.484;13.832;2022-08-19T01:55:37;6.20;;;2.60;;
12469;SDS011;36499;46.484;13.832;2022-08-19T01:58:08;3.47;;;2.27;;
12469;SDS011;36499;46.484;13.832;2022-08-19T02:00:40;6.47;;;2.43;;
12469;SDS011;36499;46.484;13.832;2022-08-19T02:03:08;7.43;;;2.40;;
12469;SDS011;36499;46.484;13.832;2022-08-19T02:05:36;4.13;;;2.50;;
12469;SDS011;36499;46.484;13.832;2022-08-19T02:08:05;6.30;;;2.60;;
12469;SDS011;36499;46.484;13.832;2022-08-19T02:10:37;6.10;;;2.53;;
12469;SDS011;36499;46.484;13.832;2022-08-19T02:13:09;7.43;;;2.57;;
12469;SDS011;36499;46.484;13.832;2022-08-19T02:15:38;7.17;;;2.73;;
12469;SDS011;36499;46.484;13.832;2022-08-19T02:18:06;5.43;;;2.63;;
12469;SDS011;36499;46.484;13.832;2022-08-19T02:20:33;4.63;;;2.20;;
12469;SDS011;36499;46.484;13.832;2022-08-19T02:23:00;7.40;;;2.67;;
12469;SDS011;36499;46.484;13.832;2022-08-19T02:25:29;5.67;;;2.60;;
12469;SDS011;36499;46.484;13.832;2022-08-19T02:27:56;7.70;;;2.50;;
12469;SDS011;36499;46.484;13.832;2022-08-19T02:30:24;5.67;;;2.60;;
12469;SDS011;36499;46.484;13.832;2022-08-19T02:32:51;3.57;;;2.20;;
12469;SDS011;36499;46.484;13.832;2022-08-19T02:35:19;6.70;;;2.27;;
12469;SDS011;36499;46.484;13.832;2022-08-19T02:37:47;6.93;;;2.73;;
12469;SDS011;36499;46.484;13.832;2022-08-19T02:40:33;5.90;;;2.63;;
12469;SDS011;36499;46.484;13.832;2022-08-19T02:43:03;5.33;;;2.50;;
12469;SDS011;36499;46.484;13.832;2022-08-19T02:45:34;6.53;;;2.57;;
12469;SDS011;36499;46.484;13.832;2022-08-19T02:48:04;4.00;;;2.20;;
12469;SDS011;36499;46.484;13.832;2022-08-19T02:50:31;7.23;;;2.73;;
12469;SDS011;36499;46.484;13.832;2022-08-19T02:52:58;10.70;;;2.70;;
12469;SDS011;36499;46.484;13.832;2022-08-19T02:55:25;4.80;;;2.20;;
12469;SDS011;36499;46.484;13.832;2022-08-19T02:57:54;5.33;;;2.50;;
12469;SDS011;36499;46.484;13.832;2022-08-19T03:00:22;5.97;;;2.50;;
12469;SDS011;36499;46.484;13.832;2022-08-19T03:02:49;5.80;;;2.27;;
12469;SDS011;36499;46.484;13.832;2022-08-19T03:05:16;3.50;;;2.23;;
12469;SDS011;36499;46.484;13.832;2022-08-19T03:07:44;4.63;;;2.43;;
12469;SDS011;36499;46.484;13.832;2022-08-19T03:10:12;8.23;;;2.77;;
12469;SDS011;36499;46.484;13.832;2022-08-19T03:12:39;6.03;;;2.63;;
12469;SDS011;36499;46.484;13.832;2022-08-19T03:15:08;4.17;;;2.27;;
12469;SDS011;36499;46.484;13.832;2022-08-19T03:17:36;6.30;;;2.27;;
12469;SDS011;36499;46.484;13.832;2022-08-19T03:20:03;5.63;;;2.17;;
12469;SDS011;36499;46.484;13.832;2022-08-19T03:22:31;8.30;;;1.80;;
12469;SDS011;36499;46.484;13.832;2022-08-19T03:24:58;3.17;;;1.83;;
12469;SDS011;36499;46.484;13.832;2022-08-19T03:27:26;3.50;;;1.67;;
12469;SDS011;36499;46.484;13.832;2022-08-19T03:29:53;5.27;;;1.83;;
12469;SDS011;36499;46.484;13.832;2022-08-19T03:32:22;5.47;;;1.93;;
12469;SDS011;36499;46.484;13.832;2022-08-19T03:34:49;4.53;;;1.70;;
12469;SDS011;36499;46.484;13.832;2022-08-19T03:37:17;3.53;;;1.57;;
12469;SDS011;36499;46.484;13.832;2022-08-19T03:39:44;3.20;;;1.70;;
12469;SDS011;36499;46.484;13.832;2022-08-19T03:42:11;6.43;;;2.20;;
12469;SDS011;36499;46.484;13.832;2022-08-19T03:44:38;5.10;;;2.10;;
12469;SDS011;36499;46.484;13.832;2022-08-19T03:47:07;6.17;;;2.10;;
12469;SDS011;36499;46.484;13.832;2022-08-19T03:49:35;3.83;;;1.80;;
12469;SDS011;36499;46.484;13.832;2022-08-19T03:52:03;5.10;;;1.93;;
12469;SDS011;36499;46.484;13.832;2022-08-19T03:54:33;4.60;;;1.83;;
12469;SDS011;36499;46.484;13.832;2022-08-19T03:57:03;5.33;;;1.87;;
12469;SDS011;36499;46.484;13.832;2022-08-19T03:59:31;8.93;;;2.20;;
12469;SDS011;36499;46.484;13.832;2022-08-19T04:02:01;7.37;;;2.07;;
12469;SDS011;36499;46.484;13.832;2022-08-19T04:04:35;4.30;;;2.10;;
12469;SDS011;36499;46.484;13.832;2022-08-19T04:07:03;3.03;;;1.77;;
12469;SDS011;36499;46.484;13.832;2022-08-19T04:09:32;2.97;;;1.93;;
12469;SDS011;36499;46.484;13.832;2022-08-19T04:12:01;3.60;;;1.70;;
12469;SDS011;36499;46.484;13.832;2022-08-19T04:14:31;4.87;;;2.20;;
12469;SDS011;36499;46.484;13.832;2022-08-19T04:16:59;3.97;;;1.80;;
12469;SDS011;36499;46.484;13.832;2022-08-19T04:19:29;5.23;;;2.00;;
12469;SDS011;36499;46.484;13.832;2022-08-19T04:21:58;1.93;;;1.60;;
12469;SDS011;36499;46.484;13.832;2022-08-19T04:24:26;4.83;;;1.57;;
12469;SDS011;36499;46.484;13.832;2022-08-19T04:26:53;3.10;;;1.40;;
12469;SDS011;36499;46.484;13.832;2022-08-19T04:29:23;3.10;;;1.30;;
12469;SDS011;36499;46.484;13.832;2022-08-19T04:31:52;2.17;;;1.30;;
12469;SDS011;36499;46.484;13.832;2022-08-19T04:34:22;2.67;;;1.37;;
12469;SDS011;36499;46.484;13.832;2022-08-19T04:36:54;3.67;;;1.60;;
12469;SDS011;36499;46.484;13.832;2022-08-19T04:39:26;4.37;;;1.77;;
12469;SDS011;36499;46.484;13.832;2022-08-19T04:42:10;4.27;;;1.47;;
12469;SDS011;36499;46.484;13.832;2022-08-19T04:44:55;3.13;;;1.47;;
12469;SDS011;36499;46.484;13.832;2022-08-19T04:47:23;3.90;;;1.60;;
12469;SDS011;36499;46.484;13.832;2022-08-19T04:49:50;3.70;;;1.40;;
12469;SDS011;36499;46.484;13.832;2022-08-19T04:52:18;3.33;;;1.50;;
12469;SDS011;36499;46.484;13.832;2022-08-19T04:54:46;6.30;;;2.10;;
12469;SDS011;36499;46.484;13.832;2022-08-19T04:57:13;4.47;;;1.80;;
12469;SDS011;36499;46.484;13.832;2022-08-19T04:59:41;8.67;;;1.87;;
12469;SDS011;36499;46.484;13.832;2022-08-19T05:02:08;3.67;;;1.40;;
12469;SDS011;36499;46.484;13.832;2022-08-19T05:04:36;4.93;;;1.60;;
12469;SDS011;36499;46.484;13.832;2022-08-19T05:07:04;3.30;;;1.63;;
12469;SDS011;36499;46.484;13.832;2022-08-19T05:09:32;4.87;;;1.67;;
12469;SDS011;36499;46.484;13.832;2022-08-19T05:12:02;5.60;;;1.70;;
12469;SDS011;36499;46.484;13.832;2022-08-19T05:14:30;3.87;;;1.73;;
12469;SDS011;36499;46.484;13.832;2022-08-19T05:16:57;4.43;;;1.67;;
12469;SDS011;36499;46.484;13.832;2022-08-19T05:19:24;4.97;;;1.80;;
12469;SDS011;36499;46.484;13.832;2022-08-19T05:22:24;2.70;;;1.57;;
12469;SDS011;36499;46.484;13.832;2022-08-19T05:25:02;3.97;;;1.73;;
12469;SDS011;36499;46.484;13.832;2022-08-19T05:27:35;4.77;;;1.50;;
12469;SDS011;36499;46.484;13.832;2022-08-19T05:30:02;2.33;;;1.53;;
12469;SDS011;36499;46.484;13.832;2022-08-19T05:32:31;3.87;;;1.50;;
12469;SDS011;36499;46.484;13.832;2022-08-19T05:34:58;3.30;;;1.63;;
12469;SDS011;36499;46.484;13.832;2022-08-19T05:37:25;6.20;;;1.80;;
12469;SDS011;36499;46.484;13.832;2022-08-19T05:39:53;2.47;;;1.60;;
12469;SDS011;36499;46.484;13.832;2022-08-19T05:42:21;4.67;;;1.70;;
12469;SDS011;36499;46.484;13.832;2022-08-19T05:44:50;3.73;;;1.40;;
12469;SDS011;36499;46.484;13.832;2022-08-19T05:47:18;4.07;;;1.60;;
12469;SDS011;36499;46.484;13.832;2022-08-19T05:49:46;4.40;;;1.50;;
12469;SDS011;36499;46.484;13.832;2022-08-19T05:52:14;4.47;;;1.37;;
12469;SDS011;36499;46.484;13.832;2022-08-19T05:54:42;3.03;;;1.17;;
12469;SDS011;36499;46.484;13.832;2022-08-19T05:57:12;4.30;;;1.27;;
12469;SDS011;36499;46.484;13.832;2022-08-19T05:59:40;2.50;;;1.20;;
12469;SDS011;36499;46.484;13.832;2022-08-19T06:02:10;3.10;;;1.53;;
12469;SDS011;36499;46.484;13.832;2022-08-19T06:04:38;3.50;;;1.73;;
12469;SDS011;36499;46.484;13.832;2022-08-19T06:07:07;4.37;;;1.40;;
12469;SDS011;36499;46.484;13.832;2022-08-19T06:09:35;7.07;;;1.33;;
12469;SDS011;36499;46.484;13.832;2022-08-19T06:12:02;2.70;;;1.20;;
12469;SDS011;36499;46.484;13.832;2022-08-19T06:14:31;2.17;;;1.60;;
12469;SDS011;36499;46.484;13.832;2022-08-19T06:17:01;2.93;;;1.47;;
12469;SDS011;36499;46.484;13.832;2022-08-19T06:19:30;4.63;;;1.20;;
12469;SDS011;36499;46.484;13.832;2022-08-19T06:21:58;2.43;;;1.00;;
12469;SDS011;36499;46.484;13.832;2022-08-19T06:24:29;2.03;;;1.20;;
12469;SDS011;36499;46.484;13.832;2022-08-19T06:26:57;1.87;;;1.10;;
12469;SDS011;36499;46.484;13.832;2022-08-19T06:29:25;1.33;;;1.10;;
12469;SDS011;36499;46.484;13.832;2022-08-19T06:31:55;1.53;;;1.03;;
12469;SDS011;36499;46.484;13.832;2022-08-19T06:34:25;2.07;;;1.10;;
12469;SDS011;36499;46.484;13.832;2022-08-19T06:36:57;2.67;;;1.50;;
12469;SDS011;36499;46.484;13.832;2022-08-19T06:39:27;3.87;;;1.53;;
12469;SDS011;36499;46.484;13.832;2022-08-19T06:42:00;1.87;;;1.10;;
12469;SDS011;36499;46.484;13.832;2022-08-19T06:44:31;1.07;;;0.97;;
12469;SDS011;36499;46.484;13.832;2022-08-19T06:47:02;1.97;;;1.10;;
12469;SDS011;36499;46.484;13.832;2022-08-19T06:49:34;3.27;;;1.10;;
12469;SDS011;36499;46.484;13.832;2022-08-19T06:52:03;4.40;;;1.27;;
12469;SDS011;36499;46.484;13.832;2022-08-19T06:54:31;5.77;;;1.30;;
12469;SDS011;36499;46.484;13.832;2022-08-19T06:56:59;2.17;;;1.00;;
12469;SDS011;36499;46.484;13.832;2022-08-19T06:59:28;5.30;;;1.50;;
12469;SDS011;36499;46.484;13.832;2022-08-19T07:01:58;2.33;;;1.10;;
12469;SDS011;36499;46.484;13.832;2022-08-19T07:04:28;2.33;;;1.20;;
12469;SDS011;36499;46.484;13.832;2022-08-19T07:06:57;1.37;;;1.00;;
12469;SDS011;36499;46.484;13.832;2022-08-19T07:09:28;2.10;;;1.10;;
12469;SDS011;36499;46.484;13.832;2022-08-19T07:11:58;1.93;;;1.20;;
12469;SDS011;36499;46.484;13.832;2022-08-19T07:14:26;2.50;;;1.30;;
12469;SDS011;36499;46.484;13.832;2022-08-19T07:16:54;1.60;;;1.10;;
12469;SDS011;36499;46.484;13.832;2022-08-19T07:19:24;2.93;;;1.37;;
12469;SDS011;36499;46.484;13.832;2022-08-19T07:21:53;2.97;;;1.20;;
12469;SDS011;36499;46.484;13.832;2022-08-19T07:24:22;3.47;;;1.20;;
12469;SDS011;36499;46.484;13.832;2022-08-19T07:26:53;2.93;;;1.40;;
12469;SDS011;36499;46.484;13.832;2022-08-19T07:29:28;3.60;;;1.30;;
12469;SDS011;36499;46.484;13.832;2022-08-19T07:31:59;1.87;;;1.30;;
12469;SDS011;36499;46.484;13.832;2022-08-19T07:34:29;4.87;;;1.33;;
12469;SDS011;36499;46.484;13.832;2022-08-19T07:36:59;1.37;;;1.07;;
12469;SDS011;36499;46.484;13.832;2022-08-19T07:39:28;1.80;;;1.30;;
12469;SDS011;36499;46.484;13.832;2022-08-19T07:42:01;1.30;;;1.00;;
12469;SDS011;36499;46.484;13.832;2022-08-19T07:44:34;2.10;;;1.00;;
12469;SDS011;36499;46.484;13.832;2022-08-19T07:47:03;4.33;;;1.20;;
12469;SDS011;36499;46.484;13.832;2022-08-19T07:49:31;1.10;;;0.87;;
12469;SDS011;36499;46.484;13.832;2022-08-19T07:52:00;1.20;;;1.03;;
12469;SDS011;36499;46.484;13.832;2022-08-19T07:54:31;2.83;;;0.90;;
12469;SDS011;36499;46.484;13.832;2022-08-19T07:57:03;2.63;;;1.43;;
12469;SDS011;36499;46.484;13.832;2022-08-19T07:59:31;3.77;;;1.40;;
12469;SDS011;36499;46.484;13.832;2022-08-19T08:01:59;5.03;;;1.30;;
12469;SDS011;36499;46.484;13.832;2022-08-19T08:04:27;1.83;;;1.07;;
12469;SDS011;36499;46.484;13.832;2022-08-19T08:07:13;4.47;;;1.10;;
12469;SDS011;36499;46.484;13.832;2022-08-19T08:09:58;3.97;;;1.37;;
12469;SDS011;36499;46.484;13.832;2022-08-19T08:12:28;4.63;;;1.20;;
12469;SDS011;36499;46.484;13.832;2022-08-19T08:15:00;1.30;;;1.10;;
12469;SDS011;36499;46.484;13.832;2022-08-19T08:17:34;3.83;;;1.30;;
12469;SDS011;36499;46.484;13.832;2022-08-19T08:20:02;2.57;;;1.20;;
12469;SDS011;36499;46.484;13.832;2022-08-19T08:22:32;1.50;;;1.03;;
12469;SDS011;36499;46.484;13.832;2022-08-19T08:25:18;2.00;;;1.20;;
12469;SDS011;36499;46.484;13.832;2022-08-19T08:27:50;2.60;;;1.20;;
12469;SDS011;36499;46.484;13.832;2022-08-19T08:30:22;3.10;;;1.30;;
12469;SDS011;36499;46.484;13.832;2022-08-19T08:32:52;1.70;;;1.00;;
12469;SDS011;36499;46.484;13.832;2022-08-19T08:35:20;4.23;;;1.40;;
12469;SDS011;36499;46.484;13.832;2022-08-19T08:37:52;4.10;;;1.57;;
12469;SDS011;36499;46.484;13.832;2022-08-19T08:40:22;2.77;;;1.20;;
12469;SDS011;36499;46.484;13.832;2022-08-19T08:42:59;5.87;;;1.67;;
12469;SDS011;36499;46.484;13.832;2022-08-19T08:45:33;1.73;;;1.20;;
12469;SDS011;36499;46.484;13.832;2022-08-19T08:48:11;1.37;;;1.17;;
12469;SDS011;36499;46.484;13.832;2022-08-19T08:50:46;3.63;;;1.47;;
12469;SDS011;36499;46.484;13.832;2022-08-19T08:53:18;2.10;;;1.43;;
12469;SDS011;36499;46.484;13.832;2022-08-19T08:55:47;2.53;;;1.40;;
12469;SDS011;36499;46.484;13.832;2022-08-19T08:58:17;2.07;;;1.30;;
12469;SDS011;36499;46.484;13.832;2022-08-19T09:00:54;3.23;;;1.53;;
12469;SDS011;36499;46.484;13.832;2022-08-19T09:03:22;4.30;;;1.20;;
12469;SDS011;36499;46.484;13.832;2022-08-19T09:05:55;2.20;;;1.33;;
12469;SDS011;36499;46.484;13.832;2022-08-19T09:08:30;2.67;;;1.40;;
12469;SDS011;36499;46.484;13.832;2022-08-19T09:11:13;2.50;;;1.50;;
12469;SDS011;36499;46.484;13.832;2022-08-19T09:13:56;3.43;;;1.30;;
12469;SDS011;36499;46.484;13.832;2022-08-19T09:16:37;4.00;;;1.40;;
12469;SDS011;36499;46.484;13.832;2022-08-19T09:19:06;3.27;;;1.23;;
12469;SDS011;36499;46.484;13.832;2022-08-19T09:21:35;2.83;;;1.40;;
12469;SDS011;36499;46.484;13.832;2022-08-19T09:24:04;5.37;;;1.43;;
12469;SDS011;36499;46.484;13.832;2022-08-19T09:26:32;3.30;;;1.20;;
12469;SDS011;36499;46.484;13.832;2022-08-19T09:29:02;5.13;;;1.20;;
12469;SDS011;36499;46.484;13.832;2022-08-19T09:31:30;1.87;;;1.30;;
12469;SDS011;36499;46.484;13.832;2022-08-19T09:33:59;3.03;;;1.10;;
12469;SDS011;36499;46.484;13.832;2022-08-19T09:36:28;2.60;;;1.30;;
12469;SDS011;36499;46.484;13.832;2022-08-19T09:38:58;1.97;;;1.10;;
12469;SDS011;36499;46.484;13.832;2022-08-19T09:41:26;2.27;;;1.10;;
12469;SDS011;36499;46.484;13.832;2022-08-19T09:43:54;3.33;;;1.10;;
12469;SDS011;36499;46.484;13.832;2022-08-19T09:46:25;3.13;;;1.37;;
12469;SDS011;36499;46.484;13.832;2022-08-19T09:48:59;5.60;;;1.40;;
12469;SDS011;36499;46.484;13.832;2022-08-19T09:51:26;2.33;;;1.37;;
12469;SDS011;36499;46.484;13.832;2022-08-19T09:53:57;1.80;;;1.10;;
12469;SDS011;36499;46.484;13.832;2022-08-19T09:56:27;3.73;;;1.47;;
12469;SDS011;36499;46.484;13.832;2022-08-19T09:58:57;2.80;;;1.20;;
12469;SDS011;36499;46.484;13.832;2022-08-19T10:01:27;3.00;;;1.30;;
12469;SDS011;36499;46.484;13.832;2022-08-19T10:03:57;2.87;;;1.23;;
12469;SDS011;36499;46.484;13.832;2022-08-19T10:06:27;4.20;;;1.20;;
12469;SDS011;36499;46.484;13.832;2022-08-19T10:08:57;3.17;;;1.30;;
12469;SDS011;36499;46.484;13.832;2022-08-19T10:11:25;5.03;;;1.40;;
12469;SDS011;36499;46.484;13.832;2022-08-19T10:13:54;2.47;;;1.03;;
12469;SDS011;36499;46.484;13.832;2022-08-19T10:16:23;2.70;;;1.30;;
12469;SDS011;36499;46.484;13.832;2022-08-19T10:18:52;2.67;;;1.13;;
12469;SDS011;36499;46.484;13.832;2022-08-19T10:21:21;1.90;;;1.27;;
12469;SDS011;36499;46.484;13.832;2022-08-19T10:23:52;5.20;;;1.27;;
12469;SDS011;36499;46.484;13.832;2022-08-19T10:26:23;2.63;;;1.20;;
12469;SDS011;36499;46.484;13.832;2022-08-19T10:28:53;4.03;;;1.20;;
12469;SDS011;36499;46.484;13.832;2022-08-19T10:31:23;2.10;;;1.13;;
12469;SDS011;36499;46.484;13.832;2022-08-19T10:33:55;3.20;;;1.63;;
12469;SDS011;36499;46.484;13.832;2022-08-19T10:36:24;1.93;;;1.30;;
12469;SDS011;36499;46.484;13.832;2022-08-19T10:38:55;2.93;;;1.50;;
12469;SDS011;36499;46.484;13.832;2022-08-19T10:41:27;4.13;;;1.80;;
12469;SDS011;36499;46.484;13.832;2022-08-19T10:43:58;3.90;;;1.90;;
12469;SDS011;36499;46.484;13.832;2022-08-19T10:46:29;2.93;;;1.70;;
12469;SDS011;36499;46.484;13.832;2022-08-19T10:48:59;6.40;;;1.60;;
12469;SDS011;36499;46.484;13.832;2022-08-19T10:51:27;3.20;;;1.60;;
12469;SDS011;36499;46.484;13.832;2022-08-19T10:54:12;5.70;;;1.60;;
12469;SDS011;36499;46.484;13.832;2022-08-19T10:56:40;2.97;;;1.60;;
12469;SDS011;36499;46.484;13.832;2022-08-19T10:59:22;3.77;;;1.90;;
12469;SDS011;36499;46.484;13.832;2022-08-19T11:01:52;3.70;;;1.43;;
12469;SDS011;36499;46.484;13.832;2022-08-19T11:04:26;1.80;;;1.20;;
12469;SDS011;36499;46.484;13.832;2022-08-19T11:06:57;7.17;;;1.93;;
12469;SDS011;36499;46.484;13.832;2022-08-19T11:09:24;5.50;;;1.90;;
12469;SDS011;36499;46.484;13.832;2022-08-19T11:11:53;5.03;;;1.53;;
12469;SDS011;36499;46.484;13.832;2022-08-19T11:14:21;2.33;;;1.33;;
12469;SDS011;36499;46.484;13.832;2022-08-19T11:16:50;4.10;;;1.50;;
12469;SDS011;36499;46.484;13.832;2022-08-19T11:19:21;2.97;;;1.57;;
12469;SDS011;36499;46.484;13.832;2022-08-19T11:21:50;3.27;;;1.20;;
12469;SDS011;36499;46.484;13.832;2022-08-19T11:24:20;2.73;;;1.30;;
12469;SDS011;36499;46.484;13.832;2022-08-19T11:26:52;1.73;;;1.20;;
12469;SDS011;36499;46.484;13.832;2022-08-19T11:29:27;3.57;;;1.30;;
12469;SDS011;36499;46.484;13.832;2022-08-19T11:31:54;1.37;;;1.07;;
12469;SDS011;36499;46.484;13.832;2022-08-19T11:34:23;1.30;;;1.10;;
12469;SDS011;36499;46.484;13.832;2022-08-19T11:36:54;3.77;;;1.70;;
12469;SDS011;36499;46.484;13.832;2022-08-19T11:39:25;2.67;;;1.30;;
12469;SDS011;36499;46.484;13.832;2022-08-19T11:41:55;2.43;;;1.20;;
12469;SDS011;36499;46.484;13.832;2022-08-19T11:44:24;2.23;;;1.33;;
12469;SDS011;36499;46.484;13.832;2022-08-19T11:46:55;2.33;;;1.30;;
12469;SDS011;36499;46.484;13.832;2022-08-19T11:49:25;2.10;;;1.23;;
12469;SDS011;36499;46.484;13.832;2022-08-19T11:51:52;3.33;;;1.50;;
12469;SDS011;36499;46.484;13.832;2022-08-19T11:54:20;1.73;;;1.30;;
12469;SDS011;36499;46.484;13.832;2022-08-19T11:56:47;2.73;;;1.30;;
12469;SDS011;36499;46.484;13.832;2022-08-19T11:59:15;2.90;;;1.57;;
12469;SDS011;36499;46.484;13.832;2022-08-19T12:01:42;1.97;;;1.40;;
12469;SDS011;36499;46.484;13.832;2022-08-19T12:04:09;1.57;;;1.33;;
12469;SDS011;36499;46.484;13.832;2022-08-19T12:06:37;3.20;;;1.63;;
12469;SDS011;36499;46.484;13.832;2022-08-19T12:09:08;1.43;;;1.10;;
12469;SDS011;36499;46.484;13.832;2022-08-19T12:11:37;2.60;;;1.40;;
12469;SDS011;36499;46.484;13.832;2022-08-19T12:14:06;2.80;;;1.20;;
12469;SDS011;36499;46.484;13.832;2022-08-19T12:16:36;2.47;;;1.30;;
12469;SDS011;36499;46.484;13.832;2022-08-19T12:19:04;2.87;;;1.50;;
12469;SDS011;36499;46.484;13.832;2022-08-19T12:21:33;1.73;;;1.30;;
12469;SDS011;36499;46.484;13.832;2022-08-19T12:24:02;3.33;;;1.60;;
12469;SDS011;36499;46.484;13.832;2022-08-19T12:26:33;3.67;;;2.10;;
12469;SDS011;36499;46.484;13.832;2022-08-19T12:29:01;2.47;;;1.57;;
12469;SDS011;36499;46.484;13.832;2022-08-19T12:31:29;3.33;;;1.77;;
12469;SDS011;36499;46.484;13.832;2022-08-19T12:33:57;7.67;;;2.47;;
12469;SDS011;36499;46.484;13.832;2022-08-19T12:36:27;4.23;;;2.07;;
12469;SDS011;36499;46.484;13.832;2022-08-19T12:38:54;2.67;;;1.40;;
12469;SDS011;36499;46.484;13.832;2022-08-19T12:41:25;3.63;;;1.60;;
12469;SDS011;36499;46.484;13.832;2022-08-19T12:43:54;4.23;;;1.70;;
12469;SDS011;36499;46.484;13.832;2022-08-19T12:46:21;4.83;;;1.87;;
12469;SDS011;36499;46.484;13.832;2022-08-19T12:48:48;4.10;;;1.57;;
12469;SDS011;36499;46.484;13.832;2022-08-19T12:51:17;3.90;;;1.80;;
12469;SDS011;36499;46.484;13.832;2022-08-19T12:53:45;4.10;;;1.80;;
12469;SDS011;36499;46.484;13.832;2022-08-19T12:56:14;2.23;;;1.53;;
12469;SDS011;36499;46.484;13.832;2022-08-19T12:58:42;2.33;;;1.63;;
12469;SDS011;36499;46.484;13.832;2022-08-19T13:01:13;4.33;;;1.70;;
12469;SDS011;36499;46.484;13.832;2022-08-19T13:03:44;2.13;;;1.67;;
12469;SDS011;36499;46.484;13.832;2022-08-19T13:06:12;6.43;;;1.87;;
12469;SDS011;36499;46.484;13.832;2022-08-19T13:08:40;2.73;;;1.70;;
12469;SDS011;36499;46.484;13.832;2022-08-19T13:11:09;5.83;;;1.97;;
12469;SDS011;36499;46.484;13.832;2022-08-19T13:13:39;2.83;;;1.60;;
12469;SDS011;36499;46.484;13.832;2022-08-19T13:16:08;2.67;;;1.60;;
12469;SDS011;36499;46.484;13.832;2022-08-19T13:18:39;2.70;;;1.70;;
12469;SDS011;36499;46.484;13.832;2022-08-19T13:21:09;2.47;;;1.50;;
12469;SDS011;36499;46.484;13.832;2022-08-19T13:23:38;2.83;;;1.37;;
12469;SDS011;36499;46.484;13.832;2022-08-19T13:26:09;2.80;;;1.47;;
12469;SDS011;36499;46.484;13.832;2022-08-19T13:28:38;3.50;;;1.40;;
12469;SDS011;36499;46.484;13.832;2022-08-19T13:31:26;2.23;;;1.30;;
12469;SDS011;36499;46.484;13.832;2022-08-19T13:34:16;3.27;;;1.57;;
12469;SDS011;36499;46.484;13.832;2022-08-19T13:36:46;1.53;;;1.23;;
12469;SDS011;36499;46.484;13.832;2022-08-19T13:39:13;2.63;;;1.60;;
12469;SDS011;36499;46.484;13.832;2022-08-19T13:41:42;2.57;;;1.57;;
12469;SDS011;36499;46.484;13.832;2022-08-19T13:44:13;1.47;;;1.37;;
12469;SDS011;36499;46.484;13.832;2022-08-19T13:46:44;3.17;;;1.40;;
12469;SDS011;36499;46.484;13.832;2022-08-19T13:49:13;1.87;;;1.20;;
12469;SDS011;36499;46.484;13.832;2022-08-19T13:51:41;2.03;;;1.10;;
12469;SDS011;36499;46.484;13.832;2022-08-19T13:54:10;2.80;;;1.20;;
12469;SDS011;36499;46.484;13.832;2022-08-19T13:56:39;2.93;;;1.20;;
12469;SDS011;36499;46.484;13.832;2022-08-19T13:59:08;2.27;;;1.00;;
12469;SDS011;36499;46.484;13.832;2022-08-19T14:01:36;1.80;;;1.00;;
12469;SDS011;36499;46.484;13.832;2022-08-19T14:04:05;1.47;;;1.00;;
12469;SDS011;36499;46.484;13.832;2022-08-19T14:06:33;1.23;;;1.00;;
12469;SDS011;36499;46.484;13.832;2022-08-19T14:09:00;1.37;;;0.87;;
12469;SDS011;36499;46.484;13.832;2022-08-19T14:11:28;1.93;;;1.13;;
12469;SDS011;36499;46.484;13.832;2022-08-19T14:13:56;1.53;;;1.10;;
12469;SDS011;36499;46.484;13.832;2022-08-19T14:16:23;2.20;;;1.10;;
12469;SDS011;36499;46.484;13.832;2022-08-19T14:18:50;2.00;;;1.40;;
12469;SDS011;36499;46.484;13.832;2022-08-19T14:21:21;1.60;;;1.07;;
12469;SDS011;36499;46.484;13.832;2022-08-19T14:23:50;1.10;;;1.00;;
12469;SDS011;36499;46.484;13.832;2022-08-19T14:26:19;4.37;;;1.20;;
12469;SDS011;36499;46.484;13.832;2022-08-19T14:28:49;1.87;;;1.00;;
12469;SDS011;36499;46.484;13.832;2022-08-19T14:31:18;2.30;;;1.03;;
12469;SDS011;36499;46.484;13.832;2022-08-19T14:33:49;4.50;;;1.10;;
12469;SDS011;36499;46.484;13.832;2022-08-19T14:36:16;3.30;;;1.07;;
12469;SDS011;36499;46.484;13.832;2022-08-19T14:38:46;4.20;;;1.10;;
12469;SDS011;36499;46.484;13.832;2022-08-19T14:41:14;1.70;;;1.13;;
12469;SDS011;36499;46.484;13.832;2022-08-19T14:43:44;2.17;;;0.93;;
12469;SDS011;36499;46.484;13.832;2022-08-19T14:46:15;0.80;;;0.80;;
12469;SDS011;36499;46.484;13.832;2022-08-19T14:48:45;2.03;;;0.90;;